createdAt,value
2022-09-18T00:01:34.516Z,11.57
2022-09-18T00:04:06.582Z,11.62
2022-09-18T00:06:38.484Z,11.55
2022-09-18T00:09:13.671Z,11.68
2022-09-18T00:11:46.254Z,11.83
2022-09-18T00:14:23.276Z,11.57
2022-09-18T00:16:51.089Z,11.55
2022-09-18T00:19:24.528Z,11.64
2022-09-18T00:21:52.111Z,11.67
2022-09-18T00:24:22.145Z,11.33
2022-09-18T00:26:49.247Z,11.54
2022-09-18T00:29:18.137Z,11.42
2022-09-18T00:31:45.625Z,11.49
2022-09-18T00:34:15.123Z,11.68
2022-09-18T00:36:43.778Z,11.68
2022-09-18T00:39:12.399Z,11.59
2022-09-18T00:41:42.649Z,11.58
2022-09-18T00:45:03.091Z,11.58
2022-09-18T00:47:44.147Z,11.52
2022-09-18T00:50:24.512Z,11.78
2022-09-18T00:53:03.549Z,11.48
2022-09-18T00:55:42.505Z,11.40
2022-09-18T00:58:10.313Z,11.49
2022-09-18T01:00:37.708Z,11.43
2022-09-18T01:03:07.399Z,11.46
2022-09-18T01:06:19.842Z,11.52
2022-09-18T01:09:11.787Z,11.34
2022-09-18T01:11:54.111Z,11.30
2022-09-18T01:14:41.662Z,11.32
2022-09-18T01:18:00.014Z,11.39
2022-09-18T01:21:08.748Z,11.40
2022-09-18T01:24:10.321Z,11.34
2022-09-18T01:27:21.707Z,11.36
2022-09-18T01:30:06.070Z,11.20
2022-09-18T01:32:54.218Z,11.23
2022-09-18T01:35:41.420Z,11.02
2022-09-18T01:38:37.225Z,11.07
2022-09-18T01:41:29.047Z,11.03
2022-09-18T01:44:37.991Z,10.95
2022-09-18T01:47:18.428Z,10.88
2022-09-18T01:49:53.367Z,10.90
2022-09-18T01:53:05.881Z,11.06
2022-09-18T01:55:35.510Z,11.06
2022-09-18T01:58:22.885Z,10.89
2022-09-18T02:01:03.163Z,10.97
2022-09-18T02:03:42.072Z,11.07
2022-09-18T02:06:22.287Z,10.97
2022-09-18T02:08:53.285Z,11.00
2022-09-18T02:11:21.845Z,10.95
2022-09-18T02:14:17.706Z,10.80
2022-09-18T02:16:59.411Z,10.95
2022-09-18T02:19:41.137Z,11.13
2022-09-18T02:22:15.634Z,11.10
2022-09-18T02:24:46.641Z,11.32
2022-09-18T02:27:15.225Z,10.99
2022-09-18T02:29:45.561Z,10.94
2022-09-18T02:32:18.105Z,11.10
2022-09-18T02:34:45.505Z,11.06
2022-09-18T02:37:43.872Z,11.12
2022-09-18T02:40:50.143Z,11.08
2022-09-18T02:43:52.074Z,11.06
2022-09-18T02:46:54.066Z,10.96
2022-09-18T02:50:28.774Z,10.85
2022-09-18T02:53:38.672Z,10.95
2022-09-18T02:56:51.345Z,10.97
2022-09-18T03:00:36.016Z,11.08
2022-09-18T03:03:36.468Z,11.17
2022-09-18T03:06:06.333Z,11.16
2022-09-18T03:08:33.965Z,11.08
2022-09-18T03:11:14.467Z,11.08
2022-09-18T03:13:44.124Z,10.99
2022-09-18T03:16:44.303Z,11.08
2022-09-18T03:19:32.588Z,11.13
2022-09-18T03:22:02.676Z,10.92
2022-09-18T03:27:19.386Z,10.78
2022-09-18T03:29:55.732Z,10.86
2022-09-18T03:32:31.594Z,11.06
2022-09-18T03:34:58.761Z,10.97
2022-09-18T03:37:25.753Z,10.90
2022-09-18T03:39:53.934Z,11.05
2022-09-18T03:42:20.971Z,10.63
2022-09-18T03:44:48.362Z,10.97
2022-09-18T03:47:20.611Z,11.05
2022-09-18T03:49:48.096Z,10.95
2022-09-18T03:52:15.208Z,10.85
2022-09-18T03:54:42.559Z,10.78
2022-09-18T03:57:09.845Z,10.83
2022-09-18T03:59:36.926Z,10.84
2022-09-18T04:02:04.313Z,10.78
2022-09-18T04:04:32.213Z,10.86
2022-09-18T04:07:04.796Z,10.89
2022-09-18T04:09:32.217Z,11.03
2022-09-18T04:12:11.169Z,10.53
2022-09-18T04:14:56.043Z,10.77
2022-09-18T04:17:41.710Z,10.88
2022-09-18T04:20:14.760Z,10.86
2022-09-18T04:22:41.735Z,11.12
2022-09-18T04:25:10.000Z,10.87
2022-09-18T04:27:37.638Z,11.06
2022-09-18T04:30:05.505Z,10.87
2022-09-18T04:32:32.522Z,10.98
2022-09-18T04:35:01.588Z,10.80
2022-09-18T04:37:31.734Z,10.68
2022-09-18T04:40:07.999Z,10.82
2022-09-18T04:42:35.493Z,10.76
2022-09-18T04:45:05.628Z,10.68
2022-09-18T04:47:32.567Z,10.85
2022-09-18T04:49:59.487Z,10.61
2022-09-18T04:52:26.548Z,10.80
2022-09-18T04:54:53.475Z,10.77
2022-09-18T04:57:20.632Z,10.72
2022-09-18T04:59:47.706Z,10.86
2022-09-18T05:02:14.702Z,10.86
2022-09-18T05:04:41.695Z,10.58
2022-09-18T05:07:12.005Z,10.56
2022-09-18T05:09:38.968Z,10.65
2022-09-18T05:12:06.819Z,10.59
2022-09-18T05:14:34.154Z,10.57
2022-09-18T05:17:01.900Z,10.59
2022-09-18T05:19:28.849Z,10.49
2022-09-18T05:21:55.877Z,10.72
2022-09-18T05:24:23.001Z,10.74
2022-09-18T05:26:50.447Z,10.66
2022-09-18T05:29:17.389Z,10.54
2022-09-18T05:31:44.499Z,10.75
2022-09-18T05:34:11.550Z,10.56
2022-09-18T05:36:38.490Z,10.63
2022-09-18T05:39:05.459Z,10.73
2022-09-18T05:41:35.343Z,10.70
2022-09-18T05:44:02.805Z,10.82
2022-09-18T05:46:32.576Z,10.74
2022-09-18T05:49:00.045Z,10.42
2022-09-18T05:51:27.095Z,10.72
2022-09-18T05:53:54.036Z,10.92
2022-09-18T05:56:21.403Z,11.06
2022-09-18T05:58:48.426Z,11.00
2022-09-18T06:01:15.372Z,10.93
2022-09-18T06:03:42.481Z,11.02
2022-09-18T06:06:09.544Z,10.74
2022-09-18T06:08:39.198Z,10.92
2022-09-18T06:11:06.769Z,11.00
2022-09-18T06:13:33.850Z,10.87
2022-09-18T06:16:01.046Z,10.80
2022-09-18T06:18:28.143Z,11.05
2022-09-18T06:20:58.974Z,10.97
2022-09-18T06:23:29.194Z,11.02
2022-09-18T06:26:05.978Z,10.66
2022-09-18T06:28:34.257Z,10.44
2022-09-18T06:31:03.598Z,10.87
2022-09-18T06:33:30.672Z,10.79
2022-09-18T06:35:58.050Z,10.55
2022-09-18T06:38:25.104Z,10.86
2022-09-18T06:40:54.507Z,10.84
2022-09-18T06:43:22.005Z,11.03
2022-09-18T06:45:58.322Z,11.16
2022-09-18T06:48:25.731Z,11.36
2022-09-18T06:50:55.040Z,11.21
2022-09-18T06:53:23.393Z,11.21
2022-09-18T06:55:50.736Z,10.82
2022-09-18T06:58:21.664Z,11.22
2022-09-18T07:00:48.823Z,11.38
2022-09-18T07:03:17.866Z,11.20
2022-09-18T07:05:45.638Z,10.98
2022-09-18T07:08:16.489Z,11.39
2022-09-18T07:10:43.519Z,10.71
2022-09-18T07:13:11.927Z,11.28
2022-09-18T07:15:39.026Z,11.55
2022-09-18T07:18:09.694Z,11.60
2022-09-18T07:20:36.757Z,11.28
2022-09-18T07:23:06.839Z,11.53
2022-09-18T07:25:43.184Z,11.96
2022-09-18T07:28:15.999Z,11.77
2022-09-18T07:30:43.540Z,11.83
2022-09-18T07:33:11.123Z,11.65
2022-09-18T07:35:39.178Z,11.90
2022-09-18T07:38:07.421Z,11.89
2022-09-18T07:40:35.040Z,12.18
2022-09-18T07:43:09.830Z,12.17
2022-09-18T07:45:37.241Z,12.29
2022-09-18T07:48:06.940Z,12.30
2022-09-18T07:50:34.436Z,12.41
2022-09-18T07:53:05.182Z,12.10
2022-09-18T07:55:36.724Z,11.99
2022-09-18T07:58:09.486Z,12.03
2022-09-18T08:00:37.358Z,12.28
2022-09-18T08:03:09.983Z,12.39
2022-09-18T08:05:39.065Z,12.67
2022-09-18T08:08:13.157Z,12.55
2022-09-18T08:10:45.075Z,12.50
2022-09-18T08:13:15.870Z,12.87
2022-09-18T08:15:43.872Z,13.01
2022-09-18T08:18:13.335Z,13.37
2022-09-18T08:20:43.227Z,12.98
2022-09-18T08:23:11.019Z,13.12
2022-09-18T08:25:39.058Z,12.90
2022-09-18T08:28:07.177Z,13.08
2022-09-18T08:30:35.398Z,13.27
2022-09-18T08:33:07.441Z,13.15
2022-09-18T08:35:34.946Z,13.46
2022-09-18T08:38:02.031Z,13.29
2022-09-18T08:40:53.647Z,13.24
2022-09-18T08:43:52.038Z,13.85
2022-09-18T08:46:36.214Z,13.38
2022-09-18T08:49:47.755Z,13.96
2022-09-18T08:52:20.141Z,14.16
2022-09-18T08:55:21.483Z,14.10
2022-09-18T08:58:01.298Z,14.23
2022-09-18T09:00:38.118Z,14.31
2022-09-18T09:03:31.515Z,14.46
2022-09-18T09:06:15.458Z,14.81
2022-09-18T09:09:22.904Z,14.20
2022-09-18T09:12:37.674Z,14.14
2022-09-18T09:15:39.255Z,14.11
2022-09-18T09:18:23.025Z,14.61
2022-09-18T09:20:56.830Z,14.39
2022-09-18T09:24:22.528Z,13.96
2022-09-18T09:26:51.889Z,14.76
2022-09-18T09:29:31.487Z,14.88
2022-09-18T09:32:11.578Z,14.17
2022-09-18T09:34:55.521Z,14.35
2022-09-18T09:37:36.866Z,14.52
2022-09-18T09:40:44.763Z,14.54
2022-09-18T09:43:44.667Z,14.29
2022-09-18T09:46:29.521Z,14.23
2022-09-18T09:49:11.725Z,14.05
2022-09-18T09:52:17.732Z,14.05
2022-09-18T09:55:14.144Z,14.43
2022-09-18T09:57:55.840Z,14.63
2022-09-18T10:00:26.179Z,14.78
2022-09-18T10:03:37.512Z,14.95
2022-09-18T10:06:38.126Z,15.26
2022-09-18T10:09:51.657Z,15.75
2022-09-18T10:13:01.877Z,16.13
2022-09-18T10:15:45.507Z,16.05
2022-09-18T10:18:31.103Z,15.82
2022-09-18T10:21:19.362Z,15.86
2022-09-18T10:24:30.167Z,15.82
2022-09-18T10:27:09.772Z,15.74
2022-09-18T10:29:37.033Z,15.74
2022-09-18T10:32:06.767Z,14.88
2022-09-18T10:34:50.199Z,14.92
2022-09-18T10:37:40.803Z,14.53
2022-09-18T10:40:39.711Z,15.37
2022-09-18T10:43:20.753Z,15.48
2022-09-18T10:45:55.995Z,16.52
2022-09-18T10:48:27.431Z,16.35
2022-09-18T10:51:04.321Z,16.81
2022-09-18T10:53:41.467Z,17.21
2022-09-18T10:56:21.242Z,15.51
2022-09-18T10:58:48.577Z,15.93
2022-09-18T11:01:16.148Z,15.60
2022-09-18T11:04:01.451Z,15.47
2022-09-18T11:06:37.617Z,15.75
2022-09-18T11:09:11.101Z,15.79
2022-09-18T11:11:46.568Z,16.24
2022-09-18T11:14:38.414Z,16.69
2022-09-18T11:17:07.461Z,16.40
2022-09-18T11:19:39.489Z,17.93
2022-09-18T11:22:44.368Z,17.79
2022-09-18T11:25:27.961Z,17.35
2022-09-18T11:27:59.164Z,17.65
2022-09-18T11:30:34.194Z,17.57
2022-09-18T11:33:44.226Z,17.85
2022-09-18T11:36:15.791Z,16.58
2022-09-18T11:38:46.791Z,16.30
2022-09-18T11:41:33.461Z,15.98
2022-09-18T11:44:33.790Z,16.11
2022-09-18T11:47:23.290Z,15.79
2022-09-18T11:50:09.311Z,15.72
2022-09-18T11:53:04.236Z,16.05
2022-09-18T11:56:07.364Z,16.43
2022-09-18T11:59:11.963Z,16.84
2022-09-18T12:02:00.609Z,16.59
2022-09-18T12:05:23.907Z,17.44
2022-09-18T12:08:34.981Z,15.58
2022-09-18T12:11:50.552Z,16.29
2022-09-18T12:14:39.531Z,17.09
2022-09-18T12:17:44.825Z,17.28
2022-09-18T12:20:40.519Z,16.59
2022-09-18T12:23:18.766Z,16.15
2022-09-18T12:26:48.569Z,15.66
2022-09-18T12:29:39.113Z,15.49
2022-09-18T12:32:33.766Z,15.54
2022-09-18T12:36:05.173Z,15.71
2022-09-18T12:39:26.225Z,15.76
2022-09-18T12:42:20.998Z,16.98
2022-09-18T12:45:26.572Z,17.61
2022-09-18T12:48:06.998Z,17.66
2022-09-18T12:50:58.776Z,17.59
2022-09-18T12:53:56.394Z,17.46
2022-09-18T12:56:55.291Z,17.03
2022-09-18T13:00:08.182Z,18.07
2022-09-18T13:03:20.076Z,17.02
2022-09-18T13:06:00.324Z,18.01
2022-09-18T13:08:56.209Z,18.15
2022-09-18T13:12:14.988Z,18.15
2022-09-18T13:14:58.798Z,17.81
2022-09-18T13:17:44.158Z,17.03
2022-09-18T13:20:22.591Z,16.09
2022-09-18T13:22:53.426Z,15.87
2022-09-18T13:25:37.155Z,16.37
2022-09-18T13:28:15.114Z,16.36
2022-09-18T13:30:43.003Z,16.45
2022-09-18T13:33:25.732Z,16.20
2022-09-18T13:35:58.183Z,16.39
2022-09-18T13:38:28.761Z,15.49
2022-09-18T13:41:07.698Z,15.93
2022-09-18T13:43:45.446Z,16.43
2022-09-18T13:46:41.265Z,16.78
2022-09-18T13:49:32.452Z,16.43
2022-09-18T13:52:33.214Z,16.83
2022-09-18T13:55:25.204Z,17.15
2022-09-18T13:58:31.020Z,16.33
2022-09-18T14:01:00.993Z,16.31
2022-09-18T14:03:28.100Z,15.19
2022-09-18T14:05:55.393Z,15.91
2022-09-18T14:08:24.699Z,16.05
2022-09-18T14:11:15.529Z,15.88
2022-09-18T14:13:52.412Z,15.85
2022-09-18T14:16:19.365Z,15.20
2022-09-18T14:18:49.176Z,15.57
2022-09-18T14:21:19.074Z,15.74
2022-09-18T14:23:48.403Z,16.48
2022-09-18T14:26:30.320Z,15.47
2022-09-18T14:29:10.103Z,15.47
2022-09-18T14:31:44.645Z,15.39
2022-09-18T14:34:44.321Z,15.19
2022-09-18T14:37:32.970Z,13.81
2022-09-18T14:40:00.658Z,14.34
2022-09-18T14:42:38.216Z,14.52
2022-09-18T14:45:14.236Z,14.69
2022-09-18T14:47:47.323Z,14.69
2022-09-18T14:50:37.664Z,14.67
2022-09-18T14:53:28.776Z,14.67
2022-09-18T14:56:07.080Z,14.23
2022-09-18T14:58:47.817Z,14.53
2022-09-18T15:01:24.272Z,14.76
2022-09-18T15:03:54.601Z,14.64
2022-09-18T15:06:43.353Z,14.80
2022-09-18T15:09:14.280Z,14.59
2022-09-18T15:12:01.679Z,14.45
2022-09-18T15:14:44.026Z,15.16
2022-09-18T15:17:28.208Z,15.29
2022-09-18T15:20:16.807Z,15.07
2022-09-18T15:22:43.860Z,15.09
2022-09-18T15:25:22.400Z,15.08
2022-09-18T15:27:52.007Z,14.92
2022-09-18T15:30:23.157Z,14.94
2022-09-18T15:33:06.382Z,14.75
2022-09-18T15:35:38.081Z,14.53
2022-09-18T15:38:18.512Z,14.48
2022-09-18T15:40:47.283Z,14.42
2022-09-18T15:43:33.945Z,14.37
2022-09-18T15:46:24.503Z,14.09
2022-09-18T15:48:52.012Z,14.21
2022-09-18T15:51:34.632Z,14.31
2022-09-18T15:54:26.799Z,13.90
2022-09-18T15:57:00.996Z,13.72
2022-09-18T15:59:37.736Z,13.83
2022-09-18T16:02:29.618Z,13.52
2022-09-18T16:04:56.786Z,13.63
2022-09-18T16:07:27.209Z,13.59
2022-09-18T16:09:54.924Z,13.44
2022-09-18T16:12:30.842Z,13.40
2022-09-18T16:15:23.205Z,13.68
2022-09-18T16:17:55.554Z,13.38
2022-09-18T16:20:34.076Z,13.27
2022-09-18T16:23:34.132Z,13.23
2022-09-18T16:26:36.290Z,13.29
2022-09-18T16:29:23.123Z,13.26
2022-09-18T16:31:50.153Z,13.05
2022-09-18T16:34:23.663Z,12.53
2022-09-18T16:36:51.889Z,12.98
2022-09-18T16:39:23.730Z,12.98
2022-09-18T16:41:50.794Z,13.12
2022-09-18T16:44:18.808Z,12.32
2022-09-18T16:47:00.378Z,12.15
2022-09-18T16:49:42.905Z,12.18
2022-09-18T16:52:10.916Z,12.20
2022-09-18T16:54:37.863Z,12.08
2022-09-18T16:57:18.314Z,12.08
2022-09-18T16:59:45.845Z,11.84
2022-09-18T17:02:18.061Z,12.24
2022-09-18T17:04:45.011Z,11.69
2022-09-18T17:07:12.095Z,11.49
2022-09-18T17:09:38.997Z,11.50
2022-09-18T17:12:06.252Z,11.51
2022-09-18T17:14:34.685Z,11.37
2022-09-18T17:17:01.874Z,11.81
2022-09-18T17:19:28.856Z,12.08
2022-09-18T17:21:56.573Z,11.65
2022-09-18T17:24:26.142Z,11.84
2022-09-18T17:26:53.888Z,11.45
2022-09-18T17:29:21.201Z,11.73
2022-09-18T17:31:48.200Z,11.32
2022-09-18T17:34:16.590Z,11.47
2022-09-18T17:36:43.547Z,11.53
2022-09-18T17:39:10.997Z,11.56
2022-09-18T17:41:39.206Z,11.55
2022-09-18T17:44:06.623Z,11.45
2022-09-18T17:46:33.621Z,11.16
2022-09-18T17:49:01.523Z,11.26
2022-09-18T17:51:29.332Z,11.24
2022-09-18T17:54:05.397Z,11.24
2022-09-18T17:56:33.720Z,10.95
2022-09-18T17:59:14.060Z,10.83
2022-09-18T18:01:46.994Z,10.92
2022-09-18T18:04:15.306Z,10.76
2022-09-18T18:06:42.802Z,11.02
2022-09-18T18:09:10.015Z,11.16
2022-09-18T18:11:37.984Z,11.14
2022-09-18T18:14:05.674Z,11.05
2022-09-18T18:16:34.407Z,10.92
2022-09-18T18:19:05.717Z,10.94
2022-09-18T18:21:34.715Z,11.06
2022-09-18T18:24:08.861Z,11.26
2022-09-18T18:26:38.576Z,11.22
2022-09-18T18:29:12.994Z,11.10
2022-09-18T18:31:43.161Z,10.71
2022-09-18T18:34:11.780Z,11.06
2022-09-18T18:36:41.658Z,11.10
2022-09-18T18:39:12.195Z,11.03
2022-09-18T18:41:40.978Z,11.08
2022-09-18T18:44:08.156Z,11.02
2022-09-18T18:46:37.138Z,11.22
2022-09-18T18:49:12.191Z,11.05
2022-09-18T18:51:43.700Z,11.01
2022-09-18T18:54:12.065Z,10.91
2022-09-18T18:56:40.428Z,10.64
2022-09-18T18:59:12.548Z,10.94
2022-09-18T19:01:40.085Z,10.59
2022-09-18T19:04:12.412Z,10.81
2022-09-18T19:06:43.520Z,10.86
2022-09-18T19:09:24.367Z,11.01
2022-09-18T19:11:52.955Z,11.16
2022-09-18T19:14:31.434Z,10.82
2022-09-18T19:16:59.108Z,11.18
2022-09-18T19:19:28.336Z,10.59
2022-09-18T19:21:59.718Z,10.72
2022-09-18T19:24:28.193Z,10.74
2022-09-18T19:26:58.885Z,10.70
2022-09-18T19:29:26.070Z,10.85
2022-09-18T19:31:53.162Z,11.10
2022-09-18T19:34:22.068Z,10.94
2022-09-18T19:36:50.045Z,11.22
2022-09-18T19:39:20.880Z,11.24
2022-09-18T19:42:05.331Z,10.89
2022-09-18T19:44:46.892Z,10.85
2022-09-18T19:47:40.877Z,10.95
2022-09-18T19:50:25.009Z,10.94
2022-09-18T19:52:51.986Z,10.90
2022-09-18T19:55:20.855Z,11.04
2022-09-18T19:57:54.821Z,11.05
2022-09-18T20:00:22.118Z,11.05
2022-09-18T20:02:50.041Z,10.47
2022-09-18T20:05:17.100Z,10.63
2022-09-18T20:07:44.319Z,10.84
2022-09-18T20:10:14.760Z,10.68
2022-09-18T20:12:42.443Z,10.69
2022-09-18T20:15:11.559Z,10.90
2022-09-18T20:17:39.179Z,10.43
2022-09-18T20:20:08.997Z,10.56
2022-09-18T20:22:39.737Z,10.75
2022-09-18T20:25:08.286Z,10.73
2022-09-18T20:27:41.706Z,10.41
2022-09-18T20:30:12.583Z,10.54
2022-09-18T20:32:39.861Z,10.65
2022-09-18T20:35:07.508Z,10.85
2022-09-18T20:37:34.448Z,10.96
2022-09-18T20:40:03.304Z,10.83
2022-09-18T20:42:32.236Z,10.72
2022-09-18T20:45:04.154Z,11.01
2022-09-18T20:47:37.102Z,10.68
2022-09-18T20:50:13.248Z,10.89
2022-09-18T20:52:43.605Z,10.78
2022-09-18T20:55:16.271Z,10.75
2022-09-18T20:57:46.428Z,10.51
2022-09-18T21:00:16.190Z,10.65
2022-09-18T21:02:44.145Z,10.40
2022-09-18T21:05:14.581Z,10.65
2022-09-18T21:07:44.381Z,10.80
2022-09-18T21:10:14.354Z,10.53
2022-09-18T21:12:41.461Z,10.64
2022-09-18T21:15:16.030Z,10.67
2022-09-18T21:17:43.169Z,10.65
2022-09-18T21:20:10.429Z,10.50
2022-09-18T21:22:57.354Z,10.65
2022-09-18T21:25:25.016Z,10.77
2022-09-18T21:27:55.418Z,10.82
2022-09-18T21:30:26.110Z,10.71
2022-09-18T21:32:55.792Z,10.66
2022-09-18T21:35:22.892Z,10.13
2022-09-18T21:37:49.805Z,10.25
2022-09-18T21:40:16.863Z,10.56
2022-09-18T21:42:47.531Z,10.42
2022-09-18T21:45:20.577Z,10.44
2022-09-18T21:47:49.967Z,10.55
2022-09-18T21:50:16.980Z,10.48
2022-09-18T21:52:44.254Z,10.48
2022-09-18T21:55:11.405Z,10.47
2022-09-18T21:57:38.541Z,10.22
2022-09-18T22:00:09.078Z,10.39
2022-09-18T22:02:36.494Z,10.17
2022-09-18T22:05:11.678Z,10.17
2022-09-18T22:07:43.523Z,10.15
2022-09-18T22:10:10.623Z,10.35
2022-09-18T22:12:38.970Z,10.25
2022-09-18T22:15:06.808Z,10.10
2022-09-18T22:17:33.774Z,10.23
2022-09-18T22:20:00.730Z,10.44
2022-09-18T22:22:28.027Z,10.52
2022-09-18T22:24:55.958Z,10.47
2022-09-18T22:27:24.111Z,10.52
2022-09-18T22:29:51.101Z,10.61
2022-09-18T22:32:18.057Z,10.57
2022-09-18T22:34:45.043Z,10.57
2022-09-18T22:37:12.094Z,10.46
2022-09-18T22:39:39.055Z,10.43
2022-09-18T22:42:06.066Z,10.28
2022-09-18T22:44:33.013Z,10.16
2022-09-18T22:47:00.041Z,10.26
2022-09-18T22:49:26.980Z,10.36
2022-09-18T22:51:54.690Z,10.39
2022-09-18T22:54:26.488Z,10.16
2022-09-18T22:56:55.173Z,10.13
2022-09-18T22:59:25.596Z,10.02
2022-09-18T23:02:00.192Z,9.94
2022-09-18T23:04:30.993Z,10.01
2022-09-18T23:06:59.304Z,10.35
2022-09-18T23:09:27.390Z,10.14
2022-09-18T23:11:55.251Z,9.99
2022-09-18T23:14:27.661Z,10.08
2022-09-18T23:16:56.741Z,9.95
2022-09-18T23:19:31.811Z,10.11
2022-09-18T23:21:59.525Z,10.34
2022-09-18T23:24:27.514Z,10.17
2022-09-18T23:26:58.169Z,9.96
2022-09-18T23:29:28.314Z,10.19
2022-09-18T23:31:57.455Z,10.20
2022-09-18T23:34:31.667Z,10.12
2022-09-18T23:37:00.159Z,9.89
2022-09-18T23:39:33.785Z,10.17
2022-09-18T23:42:03.160Z,9.96
2022-09-18T23:44:31.550Z,9.86
2022-09-18T23:47:00.186Z,9.92
2022-09-18T23:49:28.541Z,9.77
2022-09-18T23:51:59.867Z,9.86
2022-09-18T23:54:31.117Z,9.98
2022-09-18T23:56:58.510Z,9.72
2022-09-18T23:59:27.164Z,10.04
